Home > Products > Valid Products > TAF

000
FTUS44 KHUN 250528
TAFMSL
TAF
KMSL 250528Z 2506/2606 VRB03KT P6SM SCT040
      TEMPO 2509/2513 5SM BR SCT005
     FM251800 26007KT P6SM FEW050
     FM260100 VRB03KT P6SM FEW250=



000
FTUS44 KHUN 250528
TAFHSV
TAF
KHSV 250528Z 2506/2606 VRB03KT P6SM FEW250
     FM251800 27005KT P6SM FEW050
     FM260100 VRB03KT P6SM FEW250=



000
FTUS44 KHUN 242320
TAFMSL
TAF
KMSL 242320Z 2500/2524 VRB03KT P6SM SCT250
      TEMPO 2509/2513 3SM BR SCT005
     FM251800 28006KT P6SM FEW050=



000
FTUS44 KHUN 242320
TAFHSV
TAF
KHSV 242320Z 2500/2524 VRB03KT P6SM SCT250
     FM251800 27005KT P6SM FEW050=



000
FTUS44 KHUN 241721
TAFMSL
TAF
KMSL 241721Z 2418/2518 VRB04KT P6SM SKC
     FM250000 VRB03KT P6SM SKC
      TEMPO 2509/2513 3SM BR SCT005=



000
FTUS44 KHUN 241721
TAFHSV
TAF
KHSV 241721Z 2418/2518 VRB04KT P6SM SKC
     FM250000 VRB03KT P6SM SKC=



000
FTUS44 KHUN 241120
TAFMSL
TAF
KMSL 241120Z 2412/2512 32005KT P6SM SKC
     FM250000 VRB03KT P6SM SKC=



000
FTUS44 KHUN 241120
TAFHSV
TAF
KHSV 241120Z 2412/2512 VRB03KT P6SM BKN200
     FM241500 36007KT P6SM SKC
     FM250000 VRB03KT P6SM SKC=



000
FTUS44 KHUN 240528
TAFMSL
TAF
KMSL 240528Z 2406/2506 VRB03KT P6SM BKN250
     FM241600 35006KT P6SM SKC
     FM250000 VRB03KT P6SM SKC=



000
FTUS44 KHUN 240528
TAFHSV
TAF
KHSV 240528Z 2406/2506 VRB03KT P6SM BKN250
     FM241600 36007KT P6SM SKC
     FM250000 VRB03KT P6SM SKC=



000
FTUS44 KHUN 232320
TAFMSL
TAF
KMSL 232320Z 2400/2424 VRB03KT P6SM BKN250
     FM241000 VRB03KT P6SM SCT250
     FM241600 32010KT P6SM SKC=



000
FTUS44 KHUN 232320
TAFHSV
TAF
KHSV 232320Z 2400/2424 VRB03KT P6SM BKN250
     FM241100 VRB03KT P6SM SCT250
     FM241700 30010KT P6SM SKC=



000
FTUS44 KHUN 231730
TAFMSL
TAF
KMSL 231730Z 2318/2418 07005KT P6SM BKN250
     FM240000 VRB03KT P6SM OVC150
     FM241400 36004KT P6SM SKC=



000
FTUS44 KHUN 231730
TAFHSV
TAF
KHSV 231730Z 2318/2418 04005KT P6SM SCT250
     FM240000 VRB03KT P6SM OVC150
     FM241500 36004KT P6SM SKC=



000
FTUS44 KHUN 231120
TAFMSL
TAF
KMSL 231120Z 2312/2412 VRB05KT P6SM BKN250
     FM240000 VRB03KT P6SM BKN150=



000
FTUS44 KHUN 231120
TAFHSV
TAF
KHSV 231120Z 2312/2412 04006KT P6SM SCT250
     FM240000 VRB03KT P6SM SCT150 BKN250=



000
FTUS44 KHUN 231100 AAA
TAFMSL
TAF AMD
KMSL 231100Z 2311/2406 06004KT P6SM SKC
     FM231500 03006KT P6SM SCT250
     FM240200 VRB02KT P6SM SCT150 BKN250=



000
FTUS44 KHUN 231059 AAA
TAFHSV
TAF AMD
KHSV 231059Z 2311/2406 04005KT P6SM SKC
     FM231500 08006KT P6SM SCT250
     FM240200 VRB03KT P6SM SCT150 BKN250=



000
FTUS44 KHUN 230525
TAFHSV
TAF
KHSV 230525Z 2306/2406 04005KT P6SM SKC
      TEMPO 2310/2313 5SM BR
     FM231500 08006KT P6SM SCT250
     FM240200 VRB03KT P6SM SCT150 BKN250=



000
FTUS44 KHUN 230525
TAFMSL
TAF
KMSL 230525Z 2306/2406 VRB03KT P6SM SKC
      TEMPO 2310/2313 5SM BR
     FM231500 03006KT P6SM SCT250
     FM240200 VRB02KT P6SM SCT150 BKN250=



000
FTUS44 KHUN 222320
TAFHSV
TAF
KHSV 222320Z 2300/2324 04004KT P6SM SKC
     FM231000 VRB02KT 5SM BR SKC
     FM231300 08004KT P6SM SKC=



000
FTUS44 KHUN 222320
TAFMSL
TAF
KMSL 222320Z 2300/2324 03004KT P6SM SKC
     FM231000 VRB02KT 5SM BR SKC
     FM231300 08004KT P6SM SKC=



000
FTUS44 KHUN 221720
TAFHSV
TAF
KHSV 221720Z 2218/2318 03010G15KT P6SM SKC
     FM222300 05004KT P6SM SKC
     FM231000 VRB02KT 4SM BR SKC
     FM231300 08004KT P6SM SKC=



000
FTUS44 KHUN 221720
TAFMSL
TAF
KMSL 221720Z 2218/2318 04010G17KT P6SM SKC
     FM222300 05004KT P6SM SKC
     FM231000 VRB02KT 3SM BR SKC
     FM231300 08004KT P6SM SKC=



000
FTUS44 KHUN 221720
TAFHSV
TAF
KHSV 221720Z 2218/2318 03010G15KT P6SM SKC
     FM222300 05004KT P6SM SKC
     FM231000 VRB02KT 4SM BR SKC
     FM231300 08004KT P6SM SKC=



000
FTUS44 KHUN 221720
TAFMSL
TAF
KMSL 221720Z 2218/2318 04010G17KT P6SM SKC
     FM222300 05004KT P6SM SKC
     FM231000 VRB02KT 3SM BR SKC
     FM231300 08004KT P6SM SKC=



000
FTUS44 KHUN 221139
TAFHSV
TAF
KHSV 221139Z 2212/2312 03006KT P6SM SKC
     FM221500 03008G15KT P6SM SKC
     FM222300 05004KT P6SM SKC=



000
FTUS44 KHUN 221139
TAFMSL
TAF
KMSL 221139Z 2212/2312 03006KT P6SM SKC
     FM221500 03008G15KT P6SM SKC
     FM222300 05004KT P6SM SKC=



    US Dept of Commerce
    National Oceanic and Atmospheric Administration
    National Weather Service
    1325 East West Highway
    Silver Spring, MD 20910
    Page Author: NWS Internet Services Team
Disclaimer
Information Quality
Credits
Glossary
Privacy Policy
Freedom of Information Act (FOIA)
About Us
Career Opportunities